Time;durP1;ratioP1;P1;durP2;ratioP2;P2;SDS_P1;SDS_P2;PMS_P1;PMS_P2;Temp;Humidity;BMP_temperature;BMP_pressure;BME280_temperature;BME280_humidity;BME280_pressure;Samples;Min_cycle;Max_cycle;Signal;HPM_P1;HPM_P2
2021/12/06 00:00:22;;;;;;;61.23;30.23;;;;;;;3.67;nan;100550.88;5098437;28;20182;-71
2021/12/06 00:02:48;;;;;;;63.10;30.97;;;;;;;3.64;nan;100552.72;5161295;22;20220;-74
2021/12/06 00:05:17;;;;;;;57.70;31.23;;;;;;;3.51;nan;100564.56;5137509;27;20246;-74
2021/12/06 00:07:43;;;;;;;70.23;31.50;;;;;;;3.73;nan;100549.84;5137045;27;20208;-74
2021/12/06 00:10:09;;;;;;;70.27;32.43;;;;;;;3.58;nan;100545.00;5135830;27;20179;-73
2021/12/06 00:12:35;;;;;;;73.57;33.33;;;;;;;3.12;nan;100527.81;5135747;27;20562;-74
2021/12/06 00:15:00;;;;;;;61.43;31.53;;;;;;;3.64;nan;100555.38;5136990;27;20173;-73
2021/12/06 00:17:25;;;;;;;61.27;31.27;;;;;;;3.63;nan;100549.22;5135841;27;20169;-73
2021/12/06 00:19:51;;;;;;;61.97;30.03;;;;;;;3.60;nan;100544.03;5118211;27;20177;-73
2021/12/06 00:22:23;;;;;;;67.77;31.23;;;;;;;3.79;nan;100554.94;5135114;27;20200;-73
2021/12/06 00:24:52;;;;;;;64.17;30.23;;;;;;;3.04;nan;100541.22;5135631;27;20161;-73
2021/12/06 00:27:18;;;;;;;66.47;30.63;;;;;;;3.47;nan;100574.34;5136644;27;20199;-74
2021/12/06 00:29:43;;;;;;;57.80;29.73;;;;;;;3.66;nan;100556.19;5135614;27;20417;-73
2021/12/06 00:32:09;;;;;;;64.00;30.13;;;;;;;3.80;nan;100546.09;5136427;27;20279;-72
2021/12/06 00:34:36;;;;;;;66.30;31.63;;;;;;;3.74;nan;100562.13;5135497;27;20175;-73
2021/12/06 00:37:20;;;;;;;58.90;32.03;;;;;;;3.82;nan;100562.75;5135750;27;20206;-73
2021/12/06 00:39:51;;;;;;;64.50;30.53;;;;;;;3.94;nan;100566.81;5135384;27;20153;-72
2021/12/06 00:42:18;;;;;;;57.37;30.57;;;;;;;3.74;nan;100563.00;5117559;27;20654;-72
2021/12/06 00:44:43;;;;;;;56.33;29.23;;;;;;;3.90;nan;100559.91;5134751;27;20729;-72
2021/12/06 00:47:08;;;;;;;58.87;29.77;;;;;;;3.66;nan;100564.09;5134724;27;20255;-72
2021/12/06 00:49:34;;;;;;;52.00;27.83;;;;;;;3.95;nan;100566.75;5135861;27;20259;-72
2021/12/06 00:51:59;;;;;;;53.13;28.27;;;;;;;3.93;nan;100563.31;5134651;27;20570;-70
2021/12/06 00:54:25;;;;;;;61.87;30.00;;;;;;;3.99;nan;100564.88;5136637;27;20253;-71
2021/12/06 00:56:50;;;;;;;56.80;29.23;;;;;;;3.71;nan;100562.19;5134819;27;20698;-71
2021/12/06 00:59:15;;;;;;;59.70;28.27;;;;;;;3.99;nan;100573.69;5134784;27;20576;-72
2021/12/06 01:01:41;;;;;;;59.33;28.27;;;;;;;3.92;nan;100572.13;5134367;27;20300;-74
2021/12/06 01:04:07;;;;;;;61.77;30.17;;;;;;;3.81;nan;100579.53;5133144;27;20173;-72
2021/12/06 01:06:32;;;;;;;53.03;28.07;;;;;;;3.76;nan;100576.16;5117019;27;20181;-72
2021/12/06 01:08:58;;;;;;;53.87;29.03;;;;;;;4.04;nan;100587.59;5134706;27;20200;-72
2021/12/06 01:11:23;;;;;;;56.60;28.00;;;;;;;3.79;nan;100576.06;5134108;27;20196;-72
2021/12/06 01:13:48;;;;;;;51.30;27.57;;;;;;;3.96;nan;100579.06;5135567;27;20273;-72
2021/12/06 01:16:14;;;;;;;56.97;28.93;;;;;;;4.08;nan;100588.38;5135561;27;20259;-73
2021/12/06 01:18:39;;;;;;;51.47;28.47;;;;;;;4.21;nan;100595.03;5133946;27;20187;-73
2021/12/06 01:21:16;;;;;;;53.27;29.23;;;;;;;4.15;nan;100605.78;5135069;27;20172;-73
2021/12/06 01:23:53;;;;;;;43.40;25.57;;;;;;;4.05;nan;100605.19;5134376;27;20478;-73
2021/12/06 01:26:54;;;;;;;50.30;26.27;;;;;;;3.95;nan;100595.81;5134517;27;20160;-73
2021/12/06 01:29:45;;;;;;;49.40;26.67;;;;;;;4.05;nan;100601.69;5133897;27;20181;-73
2021/12/06 01:32:24;;;;;;;48.00;26.37;;;;;;;4.00;nan;100599.19;5134629;27;20558;-72
2021/12/06 01:40:19;;;;;;;39.17;23.57;;;;;;;4.15;nan;100611.09;5134370;27;20161;-72
2021/12/06 01:42:45;;;;;;;48.90;25.00;;;;;;;4.17;nan;100606.63;5133488;27;20193;-73
2021/12/06 01:45:11;;;;;;;41.37;24.13;;;;;;;3.90;nan;100600.38;5133537;27;20173;-73
2021/12/06 01:47:38;;;;;;;49.70;26.03;;;;;;;4.06;nan;100619.25;5135006;27;20188;-73
2021/12/06 01:50:24;;;;;;;47.00;25.33;;;;;;;4.19;nan;100632.97;5133499;27;20176;-72
2021/12/06 01:52:52;;;;;;;48.73;25.13;;;;;;;4.08;nan;100615.66;5116167;27;20288;-72
2021/12/06 01:55:24;;;;;;;42.70;24.10;;;;;;;4.20;nan;100629.44;5133321;27;20183;-73
2021/12/06 01:57:50;;;;;;;39.87;22.73;;;;;;;4.03;nan;100617.56;5134637;27;20154;-73
2021/12/06 02:00:20;;;;;;;44.50;23.40;;;;;;;4.52;nan;100639.88;5133277;27;20173;-72
2021/12/06 02:02:45;;;;;;;43.90;24.27;;;;;;;4.16;nan;100614.59;5115904;27;20201;-72
2021/12/06 02:05:11;;;;;;;42.93;24.37;;;;;;;4.11;nan;100638.50;5134803;27;20184;-73
2021/12/06 02:07:36;;;;;;;39.57;23.60;;;;;;;4.42;nan;100638.41;5133375;27;20203;-72
2021/12/06 02:10:03;;;;;;;50.13;25.27;;;;;;;4.26;nan;100632.75;5133221;27;20192;-72
2021/12/06 02:12:30;;;;;;;46.23;23.23;;;;;;;4.17;nan;100621.59;5134371;27;20195;-72
2021/12/06 02:15:03;;;;;;;52.70;26.73;;;;;;;4.17;nan;100613.66;5134007;27;20529;-71
2021/12/06 02:17:33;;;;;;;46.80;24.00;;;;;;;3.88;nan;100625.09;5133556;27;20145;-72
2021/12/06 02:20:05;;;;;;;44.67;23.87;;;;;;;4.27;nan;100645.03;5116987;27;20167;-72
2021/12/06 02:22:34;;;;;;;40.60;23.90;;;;;;;4.04;nan;100627.22;5133452;27;20534;-72
2021/12/06 02:25:00;;;;;;;42.00;23.57;;;;;;;4.18;nan;100629.47;5133288;27;20172;-72
2021/12/06 02:27:28;;;;;;;38.27;22.17;;;;;;;4.03;nan;100612.28;5116070;27;20199;-71
2021/12/06 02:29:56;;;;;;;40.23;22.30;;;;;;;4.27;nan;100633.63;5133110;27;20220;-72
2021/12/06 02:32:22;;;;;;;43.80;21.97;;;;;;;4.17;nan;100630.38;5133268;27;20217;-72
2021/12/06 02:34:51;;;;;;;40.40;19.93;;;;;;;3.76;nan;100621.91;5132811;27;20169;-72
2021/12/06 02:37:20;;;;;;;33.43;19.87;;;;;;;4.01;nan;100614.09;5132986;27;20504;-72
2021/12/06 02:39:46;;;;;;;31.67;18.40;;;;;;;3.97;nan;100601.91;5132733;28;20214;-72
2021/12/06 02:42:14;;;;;;;29.70;18.43;;;;;;;4.19;nan;100612.72;5133011;28;20188;-72
2021/12/06 02:44:40;;;;;;;34.63;18.50;;;;;;;3.66;nan;100593.13;5132925;28;20260;-72
2021/12/06 02:47:06;;;;;;;34.00;17.33;;;;;;;3.82;nan;100594.44;5133213;28;20177;-72
2021/12/06 02:49:31;;;;;;;33.73;18.23;;;;;;;4.25;nan;100609.88;5133049;28;20173;-72
2021/12/06 02:51:57;;;;;;;39.47;18.63;;;;;;;4.24;nan;100615.22;5132932;28;20271;-72
2021/12/06 02:54:23;;;;;;;36.77;19.60;;;;;;;4.06;nan;100600.75;5132860;28;20173;-73
2021/12/06 02:57:20;;;;;;;32.13;18.03;;;;;;;4.15;nan;100620.78;5132853;28;20192;-72
2021/12/06 02:59:47;;;;;;;27.30;17.07;;;;;;;4.29;nan;100631.78;5137265;27;20150;-72
2021/12/06 03:02:17;;;;;;;29.50;17.43;;;;;;;4.02;nan;100614.97;5134470;28;20654;-72
2021/12/06 03:04:42;;;;;;;29.13;16.57;;;;;;;3.42;nan;100595.56;5117791;28;20549;-72
2021/12/06 03:07:09;;;;;;;25.47;16.57;;;;;;;4.13;nan;100618.19;5134518;28;20184;-72
2021/12/06 03:09:37;;;;;;;25.80;15.50;;;;;;;4.28;nan;100623.00;5134091;28;20164;-72
2021/12/06 03:12:15;;;;;;;26.53;14.90;;;;;;;4.27;nan;100636.25;5133790;27;20696;-73
2021/12/06 03:14:47;;;;;;;27.77;15.57;;;;;;;4.18;nan;100613.63;5134016;27;20172;-72
2021/12/06 03:17:16;;;;;;;24.37;13.87;;;;;;;4.09;nan;100619.19;5132399;28;20637;-72
2021/12/06 03:19:41;;;;;;;26.43;15.40;;;;;;;4.16;nan;100635.72;5115203;28;20177;-71
2021/12/06 03:22:08;;;;;;;22.87;14.80;;;;;;;4.34;nan;100629.88;5133565;27;20663;-71
2021/12/06 03:24:34;;;;;;;27.67;15.40;;;;;;;4.35;nan;100628.94;5132568;28;20169;-72
2021/12/06 03:27:00;;;;;;;28.90;15.63;;;;;;;4.46;nan;100647.13;5134729;27;20172;-71
2021/12/06 03:29:26;;;;;;;26.70;15.20;;;;;;;4.36;nan;100638.59;5137718;27;20169;-71
2021/12/06 03:31:51;;;;;;;29.53;14.73;;;;;;;4.19;nan;100632.97;5136092;27;20188;-72
2021/12/06 03:34:18;;;;;;;25.20;14.87;;;;;;;4.05;nan;100622.81;5118890;27;20634;-72
2021/12/06 03:36:43;;;;;;;25.73;15.53;;;;;;;4.56;nan;100659.16;5136174;27;20546;-72
2021/12/06 03:39:20;;;;;;;28.73;16.53;;;;;;;4.63;nan;100658.91;5137789;27;20165;-71
2021/12/06 03:41:46;;;;;;;28.43;15.97;;;;;;;4.40;nan;100669.31;5136035;27;20269;-72
2021/12/06 03:44:12;;;;;;;33.33;17.83;;;;;;;3.93;nan;100647.81;5137154;27;20218;-71
2021/12/06 03:46:37;;;;;;;31.70;18.17;;;;;;;4.46;nan;100674.44;5136525;27;20721;-71
2021/12/06 03:49:13;;;;;;;31.27;16.43;;;;;;;4.51;nan;100676.94;5136256;27;20665;-72
2021/12/06 03:51:39;;;;;;;27.40;16.90;;;;;;;4.29;nan;100687.28;5135747;27;20180;-72
2021/12/06 03:54:04;;;;;;;30.27;18.23;;;;;;;4.49;nan;100692.84;5118726;27;20176;-72
2021/12/06 03:56:30;;;;;;;32.60;17.33;;;;;;;3.95;nan;100677.66;5136050;27;20175;-72
2021/12/06 03:58:55;;;;;;;32.63;18.33;;;;;;;4.05;nan;100694.97;5137469;27;20167;-72
2021/12/06 04:01:21;;;;;;;33.47;17.97;;;;;;;4.28;nan;100691.69;5118246;27;20204;-72
2021/12/06 04:03:47;;;;;;;32.77;18.07;;;;;;;4.04;nan;100698.53;5137481;27;20615;-72
2021/12/06 04:06:13;;;;;;;30.07;17.30;;;;;;;4.06;nan;100701.13;5136871;27;20647;-72
2021/12/06 04:08:38;;;;;;;38.00;19.57;;;;;;;4.17;nan;100711.41;5118572;27;20193;-73
2021/12/06 04:11:04;;;;;;;29.70;17.77;;;;;;;4.28;nan;100718.09;5118433;27;20698;-72
2021/12/06 04:13:29;;;;;;;30.63;17.27;;;;;;;4.05;nan;100717.88;5135781;27;20260;-72
2021/12/06 04:15:55;;;;;;;34.07;17.90;;;;;;;4.36;nan;100716.09;5136079;27;20167;-72
2021/12/06 04:18:20;;;;;;;28.30;16.47;;;;;;;4.46;nan;100714.09;5135534;27;20165;-72
2021/12/06 04:20:45;;;;;;;34.80;17.13;;;;;;;4.37;nan;100727.53;5135547;27;20177;-71
2021/12/06 04:23:11;;;;;;;32.00;17.37;;;;;;;4.43;nan;100737.06;5135224;27;20272;-72
2021/12/06 04:25:37;;;;;;;29.40;16.60;;;;;;;4.50;nan;100747.44;5135696;27;20226;-73
2021/12/06 04:28:06;;;;;;;27.30;16.33;;;;;;;4.61;nan;100710.09;5135708;27;20235;-72
2021/12/06 04:30:33;;;;;;;26.43;14.47;;;;;;;4.50;nan;100728.06;5136035;27;20173;-73
2021/12/06 04:32:59;;;;;;;30.00;15.90;;;;;;;4.36;nan;100736.38;5135104;27;20189;-75
2021/12/06 04:35:26;;;;;;;29.37;15.93;;;;;;;4.49;nan;100764.22;5135039;27;20538;-73
2021/12/06 04:37:51;;;;;;;28.77;16.20;;;;;;;3.91;nan;100713.00;5134727;27;20717;-74
2021/12/06 04:40:16;;;;;;;29.90;15.37;;;;;;;4.34;nan;100770.78;5134922;27;20257;-74
2021/12/06 04:42:42;;;;;;;29.23;16.03;;;;;;;3.99;nan;100769.09;5124027;27;20188;-73
2021/12/06 04:45:09;;;;;;;29.33;16.63;;;;;;;4.15;nan;100776.63;5147459;27;20173;-73
2021/12/06 04:47:34;;;;;;;37.60;16.63;;;;;;;3.88;nan;100762.38;5124893;27;20720;-74
2021/12/06 04:50:00;;;;;;;26.57;15.77;;;;;;;4.40;nan;100765.31;5139657;27;20200;-74
2021/12/06 04:52:26;;;;;;;32.37;16.93;;;;;;;4.38;nan;100760.97;5118007;27;20216;-75
2021/12/06 04:54:55;;;;;;;33.03;17.33;;;;;;;4.72;nan;100785.53;5117513;27;20212;-76
2021/12/06 04:57:23;;;;;;;31.03;15.93;;;;;;;4.85;nan;100769.31;5134890;27;20173;-75
2021/12/06 04:59:55;;;;;;;27.20;15.67;;;;;;;4.57;nan;100783.34;5134656;27;20177;-76
2021/12/06 05:02:28;;;;;;;30.70;15.90;;;;;;;4.58;nan;100776.28;5134332;27;20192;-75
2021/12/06 05:04:57;;;;;;;32.53;15.97;;;;;;;4.81;nan;100794.97;5134641;27;20153;-74
2021/12/06 05:07:36;;;;;;;31.57;17.47;;;;;;;4.95;nan;100799.84;5134174;27;20210;-75
2021/12/06 05:10:05;;;;;;;25.97;15.57;;;;;;;4.56;nan;100781.63;5134814;27;20160;-73
2021/12/06 05:12:30;;;;;;;24.43;14.73;;;;;;;4.50;nan;100783.56;5135662;27;20301;-73
2021/12/06 05:14:56;;;;;;;25.83;15.33;;;;;;;4.68;nan;100796.25;5134424;27;20177;-74
2021/12/06 05:17:21;;;;;;;25.23;15.30;;;;;;;4.55;nan;100816.88;5134534;27;20255;-74
2021/12/06 05:19:47;;;;;;;25.80;14.37;;;;;;;4.96;nan;100794.50;5134050;27;20169;-74
2021/12/06 05:22:12;;;;;;;27.80;15.77;;;;;;;5.02;nan;100796.97;5116994;27;20200;-74
2021/12/06 05:24:38;;;;;;;28.73;15.57;;;;;;;5.13;nan;100786.03;5134333;27;20165;-74
2021/12/06 05:27:05;;;;;;;31.30;15.53;;;;;;;4.93;nan;100797.25;5134390;27;20173;-73
2021/12/06 05:29:30;;;;;;;26.50;14.93;;;;;;;4.77;nan;100797.75;5134300;27;20177;-75
2021/12/06 05:31:58;;;;;;;34.77;17.30;;;;;;;4.88;nan;100819.47;5135342;27;20200;-73
2021/12/06 05:34:36;;;;;;;30.43;16.07;;;;;;;4.96;nan;100820.97;5133911;27;20168;-74
2021/12/06 05:37:02;;;;;;;27.47;14.73;;;;;;;4.97;nan;100811.25;5134372;27;20157;-74
2021/12/06 05:39:31;;;;;;;27.07;14.80;;;;;;;4.86;nan;100802.78;5134344;27;20472;-73
2021/12/06 05:41:59;;;;;;;28.33;14.80;;;;;;;5.22;nan;100829.91;5133896;27;20193;-73
2021/12/06 05:44:24;;;;;;;29.80;15.87;;;;;;;4.93;nan;100814.91;5133863;27;20169;-74
2021/12/06 05:46:50;;;;;;;29.90;14.97;;;;;;;4.69;nan;100822.63;5134922;27;20173;-74
2021/12/06 05:49:15;;;;;;;26.87;14.90;;;;;;;4.91;nan;100816.72;5134346;27;20195;-75
2021/12/06 05:51:40;;;;;;;25.73;13.93;;;;;;;4.85;nan;100820.44;5133525;27;20192;-73
2021/12/06 05:54:06;;;;;;;26.87;14.30;;;;;;;5.09;nan;100831.16;5135061;27;20634;-75
2021/12/06 05:56:31;;;;;;;28.83;13.93;;;;;;;5.20;nan;100847.56;5135478;27;20165;-75
2021/12/06 05:58:56;;;;;;;31.37;13.17;;;;;;;4.88;nan;100852.06;5134402;27;20296;-74
2021/12/06 06:01:29;;;;;;;25.40;12.43;;;;;;;4.58;nan;100855.59;5162707;22;20241;-68
2021/12/06 06:03:54;;;;;;;19.70;11.80;;;;;;;5.15;nan;100866.25;5134431;27;20198;-67
2021/12/06 06:06:19;;;;;;;22.07;11.57;;;;;;;5.07;nan;100864.75;5133515;27;20173;-66
2021/12/06 06:08:44;;;;;;;24.63;12.53;;;;;;;5.20;nan;100851.13;5134995;27;20193;-67
2021/12/06 06:11:10;;;;;;;25.03;13.43;;;;;;;5.11;nan;100848.72;5135360;27;20217;-69
2021/12/06 06:13:35;;;;;;;21.93;12.37;;;;;;;5.15;nan;100860.06;5134958;27;20207;-67
2021/12/06 06:16:02;;;;;;;23.27;12.17;;;;;;;5.21;nan;100850.19;5135284;27;20177;-69
2021/12/06 06:18:27;;;;;;;24.37;10.93;;;;;;;5.20;nan;100847.56;5135103;27;20171;-68
2021/12/06 06:20:55;;;;;;;26.93;12.13;;;;;;;5.46;nan;100871.47;5135245;27;20626;-67
2021/12/06 06:23:21;;;;;;;17.13;10.40;;;;;;;4.87;nan;100855.63;5134979;27;20193;-67
2021/12/06 06:25:47;;;;;;;18.40;10.43;;;;;;;4.13;nan;100890.25;5135289;27;20626;-67
2021/12/06 06:28:13;;;;;;;17.33;9.47;;;;;;;4.35;nan;100885.28;5135045;27;20195;-70
2021/12/06 06:30:38;;;;;;;17.43;9.87;;;;;;;4.68;nan;100910.78;5135629;27;20176;-68
2021/12/06 06:33:04;;;;;;;18.53;9.90;;;;;;;4.10;nan;100915.88;5134884;27;20192;-68
2021/12/06 06:35:30;;;;;;;18.23;9.43;;;;;;;4.31;nan;100910.03;5135027;27;20218;-69
2021/12/06 06:37:56;;;;;;;16.90;9.33;;;;;;;3.97;nan;100884.47;5135283;27;20165;-68
2021/12/06 06:40:22;;;;;;;16.60;8.63;;;;;;;4.20;nan;100912.09;5133696;28;20176;-67
2021/12/06 06:42:47;;;;;;;14.23;8.97;;;;;;;4.20;nan;100920.03;5134828;28;20673;-67
2021/12/06 06:45:16;;;;;;;18.27;9.23;;;;;;;4.60;nan;100918.06;5116500;28;20177;-69
2021/12/06 06:47:41;;;;;;;14.83;8.30;;;;;;;4.48;nan;100913.13;5134639;27;20285;-68
2021/12/06 06:50:08;;;;;;;18.40;9.33;;;;;;;4.85;nan;100890.97;5134981;27;20225;-68
2021/12/06 06:52:33;;;;;;;17.40;7.97;;;;;;;4.62;nan;100897.75;5133450;28;20770;-68
2021/12/06 06:54:59;;;;;;;17.07;7.73;;;;;;;4.95;nan;100895.06;5133007;28;20260;-68
2021/12/06 06:57:25;;;;;;;13.03;7.40;;;;;;;5.03;nan;100904.50;5133166;28;20177;-69
2021/12/06 06:59:50;;;;;;;13.67;7.00;;;;;;;4.61;nan;100896.00;5115890;27;20211;-69
2021/12/06 07:02:15;;;;;;;14.03;7.63;;;;;;;4.91;nan;100899.59;5137468;27;20291;-69
2021/12/06 07:04:41;;;;;;;17.00;8.33;;;;;;;4.71;nan;100876.34;5137573;27;20177;-69
2021/12/06 07:07:06;;;;;;;11.57;7.07;;;;;;;4.81;nan;100894.56;5139316;27;20559;-68
2021/12/06 07:09:32;;;;;;;17.00;8.00;;;;;;;5.14;nan;100917.44;5120442;27;20272;-68
2021/12/06 07:11:59;;;;;;;12.63;7.40;;;;;;;5.29;nan;100919.63;5139787;27;20681;-70
2021/12/06 07:14:24;;;;;;;14.90;7.40;;;;;;;5.18;nan;100903.19;5137620;27;20247;-69
2021/12/06 07:16:50;;;;;;;18.13;8.27;;;;;;;5.38;nan;100920.25;5137062;27;20169;-68
2021/12/06 07:19:15;;;;;;;12.47;7.20;;;;;;;4.92;nan;100917.19;5137960;27;20188;-70
2021/12/06 07:21:41;;;;;;;16.63;7.43;;;;;;;4.64;nan;100922.38;5138278;27;20192;-68
2021/12/06 07:24:06;;;;;;;13.93;8.03;;;;;;;4.75;nan;100934.41;5137827;27;20173;-69
2021/12/06 07:26:32;;;;;;;13.80;8.07;;;;;;;4.54;nan;100943.81;5136385;27;20208;-68
2021/12/06 07:28:57;;;;;;;12.17;8.03;;;;;;;4.58;nan;100950.75;5136319;27;20737;-69
2021/12/06 07:31:24;;;;;;;13.33;7.83;;;;;;;4.34;nan;100963.69;5119151;27;20556;-69
2021/12/06 07:33:50;;;;;;;14.27;7.53;;;;;;;4.61;nan;100954.19;5137568;27;20402;-69
2021/12/06 07:36:16;;;;;;;13.50;7.53;;;;;;;4.46;nan;100949.31;5119213;27;20176;-69
2021/12/06 07:38:42;;;;;;;17.47;8.37;;;;;;;4.43;nan;100959.94;5136956;27;20169;-68
2021/12/06 07:41:09;;;;;;;14.83;8.47;;;;;;;4.51;nan;100971.19;5136500;27;20230;-70
2021/12/06 07:43:35;;;;;;;16.43;7.83;;;;;;;4.51;nan;100951.81;5136096;27;20200;-70
2021/12/06 07:46:01;;;;;;;14.07;7.80;;;;;;;4.74;nan;100945.91;5136644;27;20176;-69
2021/12/06 07:48:26;;;;;;;16.43;8.50;;;;;;;4.33;nan;100954.00;5137679;27;20280;-70
2021/12/06 07:50:52;;;;;;;14.03;7.10;;;;;;;4.89;nan;100953.44;5137413;27;20546;-70
2021/12/06 07:53:17;;;;;;;11.77;7.60;;;;;;;4.75;nan;100945.00;5137030;27;20674;-70
2021/12/06 07:55:42;;;;;;;13.03;8.07;;;;;;;4.49;nan;100951.00;5137747;27;20201;-70
2021/12/06 07:58:09;;;;;;;13.13;7.60;;;;;;;4.58;nan;100942.81;5137305;27;20252;-70
2021/12/06 08:00:38;;;;;;;11.70;7.00;;;;;;;4.98;nan;100964.63;5136149;27;20217;-69
2021/12/06 08:03:05;;;;;;;14.67;7.90;;;;;;;5.09;nan;100944.94;5136811;27;20201;-69
2021/12/06 08:05:30;;;;;;;17.37;8.27;;;;;;;4.32;nan;100930.28;5135558;27;20196;-69
2021/12/06 08:07:57;;;;;;;11.10;7.37;;;;;;;4.53;nan;100953.53;5136729;27;20228;-68
2021/12/06 08:10:22;;;;;;;14.07;7.57;;;;;;;4.82;nan;100938.63;5135467;27;20185;-68
2021/12/06 08:12:48;;;;;;;14.80;7.63;;;;;;;4.61;nan;100946.25;5136314;27;20686;-68
2021/12/06 08:15:14;;;;;;;13.23;7.37;;;;;;;4.88;nan;100946.41;5135966;27;20314;-69
2021/12/06 08:17:40;;;;;;;15.70;8.10;;;;;;;4.87;nan;100960.56;5136849;27;20204;-69
2021/12/06 08:20:08;;;;;;;12.87;7.87;;;;;;;4.97;nan;100970.81;5137055;27;20306;-69
2021/12/06 08:22:33;;;;;;;12.33;7.60;;;;;;;4.98;nan;100937.31;5136181;27;20200;-69
2021/12/06 08:24:58;;;;;;;11.17;7.60;;;;;;;5.25;nan;100965.63;5137098;27;20229;-69
2021/12/06 08:27:24;;;;;;;13.13;7.83;;;;;;;5.21;nan;100950.75;5136975;27;20180;-69
2021/12/06 08:29:49;;;;;;;14.90;8.60;;;;;;;4.93;nan;100937.44;5136793;27;20181;-69
2021/12/06 08:32:14;;;;;;;13.17;7.07;;;;;;;4.73;nan;100947.69;5137282;27;20200;-69
2021/12/06 08:34:41;;;;;;;11.90;7.30;;;;;;;5.33;nan;100953.03;5136887;27;20554;-70
2021/12/06 08:37:08;;;;;;;11.50;7.53;;;;;;;4.75;nan;100971.44;5137356;27;20177;-70
2021/12/06 08:39:34;;;;;;;15.07;7.47;;;;;;;4.61;nan;100974.47;5137326;27;20166;-69
2021/12/06 08:41:59;;;;;;;10.00;7.27;;;;;;;5.50;nan;100967.53;5120204;27;20199;-69
2021/12/06 08:44:24;;;;;;;13.50;7.07;;;;;;;4.96;nan;100944.41;5139128;27;20226;-68
2021/12/06 08:46:50;;;;;;;12.43;7.60;;;;;;;5.13;nan;100973.91;5137711;27;20640;-70
2021/12/06 08:49:15;;;;;;;11.73;7.27;;;;;;;5.03;nan;100959.19;5137040;27;20197;-69
2021/12/06 08:51:44;;;;;;;15.33;7.23;;;;;;;5.00;nan;100956.66;5136805;27;20204;-70
2021/12/06 08:54:11;;;;;;;11.87;7.07;;;;;;;5.23;nan;100967.47;5137593;27;20196;-69
2021/12/06 08:56:37;;;;;;;15.07;8.40;;;;;;;4.94;nan;100967.41;5118461;27;20262;-69
2021/12/06 08:59:04;;;;;;;14.07;8.03;;;;;;;5.40;nan;100961.66;5137162;27;20210;-68
2021/12/06 09:01:30;;;;;;;9.43;7.00;;;;;;;5.03;nan;100961.84;5136200;27;20187;-70
2021/12/06 09:03:55;;;;;;;12.80;6.57;;;;;;;4.81;nan;100956.28;5136992;27;20176;-69
2021/12/06 09:06:21;;;;;;;11.40;6.50;;;;;;;4.75;nan;100968.78;5137136;27;20173;-70
2021/12/06 09:08:46;;;;;;;10.90;6.00;;;;;;;4.86;nan;100964.97;5135089;27;20201;-69
2021/12/06 09:11:12;;;;;;;12.47;6.57;;;;;;;5.28;nan;100960.25;5135213;27;20622;-69
2021/12/06 09:13:38;;;;;;;10.70;6.07;;;;;;;5.17;nan;100945.56;5134960;27;20242;-70
2021/12/06 09:16:05;;;;;;;13.07;5.20;;;;;;;5.58;nan;100962.91;5136339;27;20170;-70
2021/12/06 09:18:34;;;;;;;7.57;3.53;;;;;;;5.67;nan;100953.81;5136610;27;20165;-70
2021/12/06 09:21:01;;;;;;;7.83;3.00;;;;;;;4.91;nan;100915.47;5136025;27;20732;-70
2021/12/06 09:23:26;;;;;;;5.27;2.37;;;;;;;5.21;nan;100926.06;5134169;27;20201;-70
2021/12/06 09:25:51;;;;;;;2.93;2.50;;;;;;;4.98;nan;100908.22;5135966;27;20224;-70
2021/12/06 09:28:18;;;;;;;3.90;2.30;;;;;;;5.45;nan;100940.34;5117093;27;20254;-69
2021/12/06 09:30:44;;;;;;;4.30;2.50;;;;;;;4.85;nan;100909.47;5117671;27;20192;-69
2021/12/06 09:33:11;;;;;;;4.53;2.20;;;;;;;4.74;nan;100932.69;5134700;27;20230;-69
2021/12/06 09:35:40;;;;;;;5.10;2.27;;;;;;;4.88;nan;100946.41;5135681;27;20646;-69
2021/12/06 09:38:06;;;;;;;4.37;2.40;;;;;;;4.49;nan;100946.59;5134347;27;20173;-69
2021/12/06 09:40:34;;;;;;;4.97;3.03;;;;;;;4.28;nan;100934.78;5135908;27;20192;-69
2021/12/06 09:43:02;;;;;;;5.67;2.60;;;;;;;4.60;nan;100962.16;5134028;27;20776;-69
2021/12/06 09:45:30;;;;;;;7.13;4.23;;;;;;;4.42;nan;100952.91;5135375;27;20173;-70
2021/12/06 09:47:56;;;;;;;5.07;2.93;;;;;;;4.36;nan;100934.56;5133901;27;20192;-69
2021/12/06 09:50:28;;;;;;;5.43;3.07;;;;;;;5.19;nan;100964.91;5135086;27;20177;-68
2021/12/06 09:52:56;;;;;;;4.73;2.80;;;;;;;5.47;nan;100980.88;5134950;27;20201;-69
2021/12/06 09:55:22;;;;;;;4.40;2.67;;;;;;;4.59;nan;100940.13;5133731;27;20173;-69
2021/12/06 09:57:47;;;;;;;7.83;2.80;;;;;;;4.80;nan;100959.81;5133646;27;20221;-69
2021/12/06 10:00:16;;;;;;;4.00;1.97;;;;;;;5.11;nan;100930.75;5134853;27;20200;-69
2021/12/06 10:02:42;;;;;;;5.60;2.20;;;;;;;4.74;nan;100932.69;5134920;27;20210;-69
2021/12/06 10:05:10;;;;;;;4.43;1.83;;;;;;;5.23;nan;100929.53;5133822;27;20263;-69
2021/12/06 10:07:36;;;;;;;5.80;2.10;;;;;;;5.29;nan;100932.00;5135541;27;20561;-70
2021/12/06 10:10:03;;;;;;;4.10;1.63;;;;;;;5.50;nan;100934.00;5135566;27;20176;-69
2021/12/06 10:12:29;;;;;;;4.47;1.57;;;;;;;4.60;nan;100904.84;5135330;27;20196;-70
2021/12/06 10:14:56;;;;;;;1.83;1.57;;;;;;;4.55;nan;100912.06;5133707;27;20188;-69
2021/12/06 10:17:21;;;;;;;3.73;1.40;;;;;;;3.99;nan;100882.66;5134036;27;20180;-71
2021/12/06 10:19:47;;;;;;;2.87;2.30;;;;;;;4.55;nan;100927.91;5135322;27;20756;-69
2021/12/06 10:22:15;;;;;;;4.30;1.37;;;;;;;5.31;nan;100935.47;5138376;27;20194;-69
2021/12/06 10:24:41;;;;;;;4.33;2.13;;;;;;;4.40;nan;100925.66;5135213;27;20177;-69
2021/12/06 10:27:13;;;;;;;3.50;1.73;;;;;;;5.06;nan;100927.38;5134146;27;20559;-69
2021/12/06 10:29:47;;;;;;;5.57;1.97;;;;;;;5.13;nan;100926.28;5136498;27;20196;-70
2021/12/06 10:32:20;;;;;;;4.97;2.30;;;;;;;5.52;nan;100949.81;5136247;27;20237;-69
2021/12/06 10:34:56;;;;;;;2.80;1.60;;;;;;;4.72;nan;100898.34;5133405;27;20539;-69
2021/12/06 10:37:32;;;;;;;3.77;1.97;;;;;;;4.31;nan;100879.19;5134547;27;20157;-68
2021/12/06 10:39:58;;;;;;;4.60;1.60;;;;;;;4.95;nan;100895.06;5133525;27;20268;-68
2021/12/06 10:42:32;;;;;;;3.53;1.60;;;;;;;4.88;nan;100885.59;5134163;28;20216;-68
2021/12/06 10:45:04;;;;;;;2.10;1.40;;;;;;;5.89;nan;100915.13;5133491;28;20180;-68
2021/12/06 10:47:29;;;;;;;2.67;1.70;;;;;;;5.99;nan;100898.06;5134549;27;20161;-69
2021/12/06 10:50:06;;;;;;;4.10;1.77;;;;;;;5.28;nan;100842.94;5133265;28;20181;-69
2021/12/06 10:52:32;;;;;;;4.90;1.60;;;;;;;6.23;nan;100899.00;5133252;28;20188;-69
2021/12/06 10:54:57;;;;;;;4.03;1.57;;;;;;;5.52;nan;100833.34;5133226;28;20173;-69
2021/12/06 10:57:23;;;;;;;2.30;1.60;;;;;;;6.24;nan;100892.78;5132835;28;20174;-70
2021/12/06 10:59:48;;;;;;;3.40;1.70;;;;;;;7.77;nan;100911.84;5115503;28;20192;-69
2021/12/06 11:02:14;;;;;;;6.07;1.77;;;;;;;10.11;nan;100879.13;5134253;28;20214;-69
2021/12/06 11:04:40;;;;;;;2.00;1.00;;;;;;;9.44;nan;100868.22;5134317;28;20180;-69
2021/12/06 11:07:08;;;;;;;3.47;1.40;;;;;;;11.65;nan;100902.97;5132611;28;20172;-70
2021/12/06 11:09:40;;;;;;;3.27;1.43;;;;;;;11.56;nan;100895.47;5134003;27;20240;-69
2021/12/06 11:12:06;;;;;;;2.20;1.27;;;;;;;10.39;nan;100875.06;5132587;28;20197;-69
2021/12/06 11:14:40;;;;;;;2.37;1.17;;;;;;;11.01;nan;100878.91;5132338;28;20185;-70
2021/12/06 11:17:09;;;;;;;2.43;1.23;;;;;;;11.12;nan;100860.50;5115346;28;20173;-70
2021/12/06 11:19:35;;;;;;;4.43;1.00;;;;;;;11.74;nan;100880.19;5115544;28;20169;-69
2021/12/06 11:22:02;;;;;;;2.80;1.10;;;;;;;11.53;nan;100845.72;5116410;28;20222;-70
2021/12/06 11:24:39;;;;;;;1.90;1.37;;;;;;;10.98;nan;100837.22;5133007;28;20166;-70
2021/12/06 11:27:04;;;;;;;3.37;1.03;;;;;;;10.51;nan;100848.63;5132688;28;20157;-70
2021/12/06 11:29:44;;;;;;;1.20;0.80;;;;;;;11.16;nan;100870.09;5133835;27;20200;-70
2021/12/06 11:32:20;;;;;;;1.97;0.87;;;;;;;8.15;nan;100766.72;5115762;28;20615;-69
2021/12/06 11:34:53;;;;;;;2.70;0.97;;;;;;;10.93;nan;100903.38;5133905;28;20214;-70
2021/12/06 11:37:25;;;;;;;2.23;1.03;;;;;;;12.33;nan;100906.19;5133302;28;20177;-70
2021/12/06 11:40:07;;;;;;;3.00;1.03;;;;;;;13.57;nan;100922.72;5133697;28;20162;-69
2021/12/06 11:42:47;;;;;;;1.43;0.90;;;;;;;12.86;nan;100903.91;5132802;28;20347;-69
2021/12/06 11:45:12;;;;;;;4.13;0.97;;;;;;;11.56;nan;100842.88;5132925;28;20164;-69